Time;durP1;ratioP1;P1;durP2;ratioP2;P2;SDS_P1;SDS_P2;PMS_P1;PMS_P2;Temp;Humidity;BMP_temperature;BMP_pressure;BME280_temperature;BME280_humidity;BME280_pressure;Samples;Min_cycle;Max_cycle;Signal;HPM_P1;HPM_P2
2023/06/07 00:03:14;;;;;;;9.48;4.97;;;;;;;17.15;46.45;100848.22;20709223;28;20221;-78
2023/06/07 00:13:17;;;;;;;6.68;5.03;;;;;;;16.56;47.88;100855.03;20698002;28;20229;-78
2023/06/07 00:23:20;;;;;;;7.35;4.93;;;;;;;16.63;47.17;100846.66;20739623;28;20225;-78
2023/06/07 00:33:23;;;;;;;7.88;4.65;;;;;;;16.39;47.63;100866.00;20727755;28;20630;-78
2023/06/07 00:43:25;;;;;;;7.97;5.30;;;;;;;16.53;46.85;100854.94;20740599;28;20256;-78
2023/06/07 00:53:27;;;;;;;7.82;4.93;;;;;;;16.80;46.19;100856.00;20701224;28;20268;-78
2023/06/07 01:03:30;;;;;;;8.45;5.00;;;;;;;16.93;45.99;100851.81;20747712;28;20528;-78
2023/06/07 01:13:33;;;;;;;6.78;4.22;;;;;;;16.45;45.37;100856.78;20723636;28;20221;-77
2023/06/07 01:23:36;;;;;;;11.23;4.78;;;;;;;16.36;45.43;100850.44;20729593;28;20268;-78
2023/06/07 01:33:40;;;;;;;8.43;4.05;;;;;;;16.29;44.96;100858.84;20719153;28;20244;-78
2023/06/07 01:43:42;;;;;;;7.78;4.35;;;;;;;16.00;45.76;100853.59;20757276;28;20220;-77
2023/06/07 01:53:47;;;;;;;7.75;4.45;;;;;;;15.92;45.73;100839.16;20717569;28;20210;-78
2023/06/07 02:03:52;;;;;;;9.70;5.05;;;;;;;16.01;45.14;100838.16;20727712;28;20193;-77
2023/06/07 02:13:58;;;;;;;12.10;4.88;;;;;;;15.83;45.79;100835.66;20751694;28;20259;-78
2023/06/07 02:24:01;;;;;;;9.75;4.68;;;;;;;15.82;45.29;100828.28;20758306;28;20193;-77
2023/06/07 02:34:03;;;;;;;6.93;4.72;;;;;;;15.55;46.17;100837.72;20752794;28;20283;-78
2023/06/07 02:44:05;;;;;;;8.80;4.75;;;;;;;15.62;46.23;100837.94;20716001;28;20193;-78
2023/06/07 02:54:08;;;;;;;6.97;4.03;;;;;;;15.80;45.46;100833.53;20728909;28;20272;-78
2023/06/07 03:04:12;;;;;;;9.93;4.50;;;;;;;15.60;45.72;100834.63;20741998;28;20460;-78
2023/06/07 03:14:17;;;;;;;6.70;4.30;;;;;;;15.25;46.56;100830.78;20730166;28;20256;-77
2023/06/07 03:24:20;;;;;;;9.55;4.97;;;;;;;15.31;47.04;100826.47;20744067;28;20308;-78
2023/06/07 03:34:23;;;;;;;9.68;4.50;;;;;;;15.15;48.11;100830.06;20762300;28;20217;-78
2023/06/07 03:44:26;;;;;;;11.10;5.30;;;;;;;14.84;49.07;100841.31;20697383;28;20220;-78
2023/06/07 03:54:28;;;;;;;13.57;5.70;;;;;;;14.71;50.14;100848.22;20698183;28;20615;-78
2023/06/07 04:04:32;;;;;;;10.10;5.47;;;;;;;14.10;54.02;100862.44;20708157;28;20202;-77
2023/06/07 04:14:35;;;;;;;7.93;5.40;;;;;;;13.72;56.94;100866.34;20741083;28;20209;-77
2023/06/07 04:24:37;;;;;;;12.13;6.13;;;;;;;13.80;59.60;100862.63;20710405;28;20652;-77
2023/06/07 04:34:41;;;;;;;8.25;5.60;;;;;;;13.65;55.74;100863.25;20724139;28;20222;-79
2023/06/07 04:44:47;;;;;;;9.48;5.97;;;;;;;13.66;58.19;100869.78;20725118;28;20197;-79
2023/06/07 04:54:56;;;;;;;13.38;6.70;;;;;;;13.37;59.08;100865.06;20710464;28;20514;-78
2023/06/07 05:05:00;;;;;;;9.82;6.80;;;;;;;13.28;58.44;100865.16;20717324;28;20800;-78
2023/06/07 05:15:05;;;;;;;10.27;7.07;;;;;;;13.54;60.60;100873.41;20726344;28;20213;-77
2023/06/07 05:25:11;;;;;;;9.13;7.03;;;;;;;13.78;59.28;100873.50;20734250;28;20494;-77
2023/06/07 05:35:14;;;;;;;16.75;6.90;;;;;;;13.67;59.09;100872.25;20702317;28;20697;-77
2023/06/07 05:45:20;;;;;;;9.32;6.63;;;;;;;13.50;57.13;100897.13;20703823;28;20240;-77
2023/06/07 05:55:25;;;;;;;10.38;5.63;;;;;;;13.32;57.28;100896.50;20702072;28;20210;-76
2023/06/07 06:05:27;;;;;;;11.80;6.30;;;;;;;13.67;57.21;100894.97;20734248;28;20209;-76
2023/06/07 06:15:31;;;;;;;10.80;6.50;;;;;;;13.02;60.00;100910.72;20733918;28;20272;-76
2023/06/07 06:25:33;;;;;;;17.63;7.20;;;;;;;13.34;60.13;100900.59;20732038;28;20591;-76
2023/06/07 06:35:35;;;;;;;11.68;7.70;;;;;;;13.05;60.07;100912.06;20712656;28;20233;-76
2023/06/07 06:45:38;;;;;;;15.57;7.82;;;;;;;13.57;60.84;100922.94;20685793;28;20248;-77
2023/06/07 06:55:41;;;;;;;12.98;7.75;;;;;;;13.20;61.72;100936.13;20712192;28;20217;-77
2023/06/07 07:05:43;;;;;;;10.02;7.35;;;;;;;13.20;61.33;100945.44;20737170;28;20194;-77
2023/06/07 07:15:45;;;;;;;9.18;6.82;;;;;;;13.33;60.13;100935.00;20751762;28;20220;-77
2023/06/07 07:25:48;;;;;;;16.25;8.43;;;;;;;13.57;60.58;100937.97;20759663;28;20181;-77
2023/06/07 07:35:51;;;;;;;18.17;10.30;;;;;;;13.82;62.02;100943.75;20732811;28;20222;-77
2023/06/07 07:45:53;;;;;;;16.38;8.75;;;;;;;13.08;62.90;100939.69;20724822;28;20197;-77
2023/06/07 07:55:57;;;;;;;13.23;9.00;;;;;;;12.89;63.33;100942.97;20721220;28;20210;-77
2023/06/07 08:06:00;;;;;;;14.35;9.27;;;;;;;13.28;62.40;100953.06;20709254;28;20189;-77
2023/06/07 08:16:04;;;;;;;11.05;8.30;;;;;;;12.68;63.61;100967.63;20734769;28;20244;-77
2023/06/07 08:26:06;;;;;;;11.82;8.60;;;;;;;12.86;63.25;100960.66;20721179;28;20192;-77
2023/06/07 08:36:09;;;;;;;19.85;12.38;;;;;;;13.32;61.70;100962.53;20729232;28;20225;-77
2023/06/07 08:46:12;;;;;;;28.50;17.77;;;;;;;13.10;63.69;100955.19;20714660;28;20244;-77
2023/06/07 08:56:15;;;;;;;46.97;28.90;;;;;;;13.48;63.63;100962.72;20736078;28;20276;-77
2023/06/07 09:06:21;;;;;;;38.55;25.02;;;;;;;14.47;61.41;100957.84;20737116;28;20197;-77
2023/06/07 09:16:24;;;;;;;41.65;28.75;;;;;;;14.36;59.93;100970.84;20727900;28;20299;-76
2023/06/07 09:26:36;;;;;;;41.40;31.02;;;;;;;14.29;61.62;100973.44;20717257;28;20259;-76
2023/06/07 09:36:51;;;;;;;36.00;27.02;;;;;;;14.32;61.43;100978.41;20715660;28;20233;-77
2023/06/07 09:46:58;;;;;;;43.10;30.80;;;;;;;14.23;65.04;100968.34;20725651;28;20185;-78
2023/06/07 09:57:07;;;;;;;38.42;29.52;;;;;;;14.34;64.58;100970.38;20717797;28;20225;-78
2023/06/07 10:07:12;;;;;;;29.00;20.73;;;;;;;14.29;62.60;100967.75;20734529;28;20189;-77
2023/06/07 10:17:16;;;;;;;24.67;17.67;;;;;;;14.61;63.09;100953.84;20745654;28;20268;-77
2023/06/07 10:27:22;;;;;;;24.25;17.63;;;;;;;14.73;66.08;100948.16;20701814;28;20602;-78
2023/06/07 10:37:30;;;;;;;22.75;17.95;;;;;;;15.02;64.76;100945.03;20717119;28;20222;-79
2023/06/07 10:47:32;;;;;;;27.02;19.83;;;;;;;14.96;66.65;100942.81;20715958;28;20216;-78
2023/06/07 10:57:37;;;;;;;26.10;19.67;;;;;;;15.26;61.87;100937.69;20739663;28;20213;-78
2023/06/07 11:07:41;;;;;;;34.83;22.48;;;;;;;15.59;61.93;100935.41;20733454;28;20193;-78
2023/06/07 11:18:16;;;;;;;34.35;27.90;;;;;;;16.01;61.61;100917.91;20721424;28;20221;-77
2023/06/07 11:28:23;;;;;;;28.30;22.25;;;;;;;16.47;61.16;100914.22;20687859;28;20198;-77
2023/06/07 11:38:28;;;;;;;42.47;34.00;;;;;;;16.06;61.01;100923.31;20743276;28;20225;-78
2023/06/07 11:48:30;;;;;;;47.00;36.85;;;;;;;16.06;61.26;100911.94;20708434;28;20244;-78
2023/06/07 11:58:36;;;;;;;34.63;30.48;;;;;;;16.15;58.19;100906.91;20718829;28;20217;-78
2023/06/07 12:08:38;;;;;;;33.95;28.27;;;;;;;16.43;58.17;100890.53;20736162;28;20644;-78
2023/06/07 12:18:40;;;;;;;33.53;27.67;;;;;;;16.99;58.63;100878.84;20733577;28;20217;-77
2023/06/07 12:28:43;;;;;;;29.48;24.98;;;;;;;16.44;57.64;100871.41;20726528;28;20193;-77
2023/06/07 12:38:45;;;;;;;32.45;26.50;;;;;;;17.03;58.25;100867.50;20723797;28;20229;-77
2023/06/07 12:48:48;;;;;;;27.85;24.05;;;;;;;17.45;56.51;100851.34;20738180;28;20582;-77
2023/06/07 12:58:50;;;;;;;25.10;21.55;;;;;;;17.30;56.17;100833.09;20744061;28;20208;-77
2023/06/07 13:09:04;;;;;;;21.67;19.25;;;;;;;18.12;52.40;100843.22;20702807;28;21477;-78
2023/06/07 13:19:07;;;;;;;22.17;18.80;;;;;;;17.93;54.15;100849.81;20709295;28;20221;-77
2023/06/07 13:29:09;;;;;;;19.45;17.08;;;;;;;18.15;51.71;100815.91;20720474;28;20190;-77
2023/06/07 13:39:11;;;;;;;26.33;17.50;;;;;;;18.52;51.66;100804.66;20726901;28;20522;-78
2023/06/07 13:49:14;;;;;;;21.05;18.05;;;;;;;18.39;51.26;100798.34;20717313;28;20210;-77
2023/06/07 13:59:16;;;;;;;19.73;17.63;;;;;;;19.00;52.35;100797.19;20729727;28;20282;-78
2023/06/07 14:09:19;;;;;;;18.55;16.65;;;;;;;18.20;53.61;100787.00;20718966;28;20252;-78
2023/06/07 14:19:21;;;;;;;18.65;15.45;;;;;;;18.68;55.21;100771.00;20724030;28;20244;-78
2023/06/07 14:29:24;;;;;;;19.05;16.25;;;;;;;19.24;51.86;100758.66;20720230;28;20202;-77
2023/06/07 14:39:26;;;;;;;16.73;14.70;;;;;;;19.27;49.48;100747.25;20721348;28;20256;-77
2023/06/07 14:49:28;;;;;;;16.75;13.40;;;;;;;20.54;46.69;100728.69;20715106;28;20193;-78
2023/06/07 14:59:30;;;;;;;14.60;12.27;;;;;;;19.52;49.81;100743.81;20730036;28;20217;-78
2023/06/07 15:09:33;;;;;;;19.40;16.67;;;;;;;16.92;69.28;100765.44;20726312;28;20547;-79
2023/06/07 15:19:37;;;;;;;21.60;19.10;;;;;;;17.54;68.21;100748.31;20712964;28;20210;-79
2023/06/07 15:29:39;;;;;;;24.60;21.50;;;;;;;17.41;70.93;100736.25;20729128;28;20637;-79
2023/06/07 15:39:46;;;;;;;26.73;23.40;;;;;;;17.70;70.51;100720.47;20715699;28;20593;-79
2023/06/07 15:49:48;;;;;;;29.38;26.38;;;;;;;18.00;72.90;100715.66;20717524;28;20478;-79
2023/06/07 15:59:50;;;;;;;20.33;18.20;;;;;;;19.61;61.28;100695.63;20715710;28;20650;-84
2023/06/07 16:09:53;;;;;;;23.05;18.45;;;;;;;18.62;68.04;100701.91;20713497;28;20255;-82
2023/06/07 16:19:57;;;;;;;18.63;15.60;;;;;;;17.68;69.10;100711.44;20720697;28;20221;-80
2023/06/07 16:30:00;;;;;;;17.10;15.18;;;;;;;17.66;68.72;100713.84;20724012;28;20213;-78
2023/06/07 16:40:02;;;;;;;16.83;15.10;;;;;;;17.48;69.57;100704.19;20725316;28;20563;-79
2023/06/07 16:50:06;;;;;;;15.38;13.77;;;;;;;17.74;67.72;100704.22;20710033;28;20336;-79
2023/06/07 17:00:11;;;;;;;17.15;14.75;;;;;;;17.59;67.75;100696.63;20668649;28;20232;-78
2023/06/07 17:10:13;;;;;;;14.63;13.05;;;;;;;17.25;68.13;100693.53;20696271;28;20193;-77
2023/06/07 17:20:15;;;;;;;13.98;12.35;;;;;;;17.18;68.72;100684.03;20707677;28;20244;-78
2023/06/07 17:30:18;;;;;;;14.35;11.27;;;;;;;17.11;67.66;100693.25;20714280;28;20251;-77
2023/06/07 17:40:20;;;;;;;14.50;11.63;;;;;;;16.82;68.94;100686.22;20711475;28;20252;-80
2023/06/07 17:50:23;;;;;;;9.63;8.63;;;;;;;17.37;64.62;100700.28;20716299;28;20193;-80
2023/06/07 18:00:45;;;;;;;10.95;8.80;;;;;;;17.52;61.94;100690.78;20689299;28;20244;-80
2023/06/07 18:10:51;;;;;;;10.70;7.18;;;;;;;17.63;59.97;100691.78;20693065;28;20287;-81
2023/06/07 18:20:53;;;;;;;9.27;6.63;;;;;;;17.05;60.57;100686.25;20681656;28;20249;-82
2023/06/07 18:30:55;;;;;;;7.28;5.68;;;;;;;17.58;58.90;100700.69;20717295;28;20714;-80
2023/06/07 18:40:58;;;;;;;8.73;6.68;;;;;;;16.94;63.52;100700.31;20700661;28;20322;-80
2023/06/07 18:51:00;;;;;;;11.65;6.88;;;;;;;16.87;61.67;100694.44;20708036;28;20205;-80
2023/06/07 19:01:02;;;;;;;8.13;6.43;;;;;;;16.56;58.69;100691.75;20712614;28;20245;-79
2023/06/07 19:11:05;;;;;;;11.63;7.03;;;;;;;16.75;58.52;100686.03;20695681;28;20810;-79
2023/06/07 19:21:07;;;;;;;9.63;6.90;;;;;;;16.22;59.85;100691.41;20711849;28;21004;-79
2023/06/07 19:31:09;;;;;;;12.80;7.97;;;;;;;16.70;59.78;100696.94;20712719;28;20723;-78
2023/06/07 19:41:12;;;;;;;9.90;7.78;;;;;;;16.71;60.07;100705.09;20693483;28;20241;-78
2023/06/07 19:51:14;;;;;;;10.57;7.43;;;;;;;16.40;59.92;100703.19;20717501;28;20201;-78
2023/06/07 20:01:17;;;;;;;8.35;7.32;;;;;;;16.60;59.76;100704.84;20714945;28;20244;-79
2023/06/07 20:11:20;;;;;;;10.38;8.23;;;;;;;16.50;61.62;100701.78;20716906;28;20661;-78
2023/06/07 20:21:23;;;;;;;10.30;7.10;;;;;;;16.32;61.48;100707.06;20691780;28;20245;-78
2023/06/07 20:31:25;;;;;;;9.27;7.50;;;;;;;16.20;60.97;100708.03;20698043;28;20253;-79
2023/06/07 20:41:27;;;;;;;8.70;7.80;;;;;;;16.50;59.33;100711.16;20695737;28;20327;-78
2023/06/07 20:51:31;;;;;;;8.77;7.00;;;;;;;16.45;58.25;100711.44;20696918;28;20193;-77
2023/06/07 21:01:34;;;;;;;9.05;6.80;;;;;;;16.26;59.39;100706.56;20688047;28;20248;-77
2023/06/07 21:11:36;;;;;;;11.15;6.20;;;;;;;16.43;57.44;100711.00;20701764;28;20271;-78
2023/06/07 21:21:38;;;;;;;6.88;6.28;;;;;;;16.62;59.84;100702.47;20687038;28;20251;-77
2023/06/07 21:31:40;;;;;;;10.23;6.00;;;;;;;16.72;57.07;100706.75;20682692;28;20225;-78
2023/06/07 21:41:43;;;;;;;9.40;6.38;;;;;;;16.71;58.98;100712.81;20649254;28;20264;-79
2023/06/07 21:51:45;;;;;;;9.48;6.10;;;;;;;16.47;57.70;100720.44;20692938;28;20663;-80
2023/06/07 22:01:49;;;;;;;8.02;6.47;;;;;;;16.52;58.31;100711.59;20734486;28;20275;-79
2023/06/07 22:11:54;;;;;;;8.40;6.63;;;;;;;16.45;57.39;100722.84;20745638;28;20816;-77
2023/06/07 22:21:56;;;;;;;8.02;7.00;;;;;;;16.18;56.23;100721.84;20742809;28;20217;-79
2023/06/07 22:31:58;;;;;;;8.70;6.32;;;;;;;16.25;58.24;100721.16;20742239;28;20225;-77
2023/06/07 22:42:01;;;;;;;11.45;7.30;;;;;;;15.81;58.66;100732.69;20724912;28;20246;-77
2023/06/07 22:52:06;;;;;;;9.15;7.75;;;;;;;16.07;59.69;100717.06;20741263;28;20224;-78
2023/06/07 23:02:08;;;;;;;8.32;6.78;;;;;;;16.16;56.61;100721.38;20739631;28;20210;-79
2023/06/07 23:12:12;;;;;;;9.85;7.47;;;;;;;16.08;56.46;100715.88;20739662;28;20185;-79
2023/06/07 23:22:16;;;;;;;11.93;6.65;;;;;;;16.22;54.79;100721.91;20738908;28;20343;-79
2023/06/07 23:32:19;;;;;;;11.50;7.28;;;;;;;16.36;56.23;100708.00;20753672;28;20294;-78
2023/06/07 23:42:22;;;;;;;9.80;6.85;;;;;;;15.85;57.21;100710.84;20737242;28;20271;-79
2023/06/07 23:52:25;;;;;;;13.15;6.38;;;;;;;15.95;57.45;100697.25;20719099;28;20586;-79
